createdAt,value
2018-12-02T00:01:12.507Z,92176.36
2018-12-02T00:03:41.751Z,92198.89
2018-12-02T00:06:11.020Z,92184.48
2018-12-02T00:08:40.233Z,92208.59
2018-12-02T00:11:11.788Z,92186.31
2018-12-02T00:13:41.191Z,92175.59
2018-12-02T00:16:10.578Z,92179.49
2018-12-02T00:18:39.834Z,92161.17
2018-12-02T00:21:10.083Z,92171.65
2018-12-02T00:23:41.565Z,92179.78
2018-12-02T00:26:10.868Z,92123.19
2018-12-02T00:28:41.639Z,92101.96
2018-12-02T00:31:11.629Z,92131.05
2018-12-02T00:33:40.919Z,92134.18
2018-12-02T00:36:10.451Z,92144.92
2018-12-02T00:38:40.641Z,92151.47
2018-12-02T00:41:09.993Z,92187.38
2018-12-02T00:43:39.252Z,92137.86
2018-12-02T00:46:08.469Z,92126.59
2018-12-02T00:48:41.384Z,92146.50
2018-12-02T00:51:11.450Z,92136.29
2018-12-02T00:53:41.396Z,92126.05
2018-12-02T00:56:09.533Z,92127.91
2018-12-02T00:58:38.879Z,92117.92
2018-12-02T01:01:08.176Z,92120.55
2018-12-02T01:03:37.535Z,92122.12
2018-12-02T01:06:06.940Z,92157.25
2018-12-02T01:08:36.379Z,92107.72
2018-12-02T01:11:06.029Z,92100.39
2018-12-02T01:13:35.402Z,92103.53
2018-12-02T01:16:05.136Z,92141.53
2018-12-02T01:18:34.592Z,92115.31
2018-12-02T01:21:03.837Z,92145.73
2018-12-02T01:23:33.123Z,92123.42
2018-12-02T01:26:02.439Z,92144.41
2018-12-02T01:28:31.745Z,92156.73
2018-12-02T01:31:00.959Z,92188.96
2018-12-02T01:33:30.619Z,92191.31
2018-12-02T01:36:00.838Z,92208.88
2018-12-02T01:38:30.860Z,92179.27
2018-12-02T01:41:00.182Z,92198.14
2018-12-02T01:43:29.418Z,92183.19
2018-12-02T01:45:58.708Z,92165.12
2018-12-02T01:48:28.088Z,92157.79
2018-12-02T01:50:57.389Z,92139.17
2018-12-02T01:53:26.717Z,92105.89
2018-12-02T01:55:56.884Z,92118.47
2018-12-02T01:58:26.257Z,92181.11
2018-12-02T02:00:55.748Z,92151.25
2018-12-02T02:03:25.113Z,92171.68
2018-12-02T02:05:54.344Z,92170.11
2018-12-02T02:08:24.326Z,92171.15
2018-12-02T02:10:54.062Z,92136.02
2018-12-02T02:13:24.164Z,92171.94
2018-12-02T02:15:53.517Z,92200.50
2018-12-02T02:18:23.113Z,92180.06
2018-12-02T02:20:52.453Z,92215.69
2018-12-02T02:23:21.724Z,92234.30
2018-12-02T02:25:51.045Z,92225.13
2018-12-02T02:28:20.336Z,92210.45
2018-12-02T02:30:49.600Z,92196.83
2018-12-02T02:33:19.388Z,92164.08
2018-12-02T02:35:48.635Z,92197.09
2018-12-02T02:38:17.900Z,92191.86
2018-12-02T02:40:47.145Z,92173.77
2018-12-02T02:43:16.446Z,92248.45
2018-12-02T02:45:45.727Z,92258.97
2018-12-02T02:48:15.079Z,92268.67
2018-12-02T02:50:44.487Z,92247.41
2018-12-02T02:53:13.790Z,92294.09
2018-12-02T02:55:43.069Z,92258.45
2018-12-02T02:58:12.319Z,92209.41
2018-12-02T03:00:43.697Z,92203.65
2018-12-02T03:03:13.348Z,92242.70
2018-12-02T03:05:44.822Z,92248.98
2018-12-02T03:08:14.143Z,92239.02
2018-12-02T03:10:43.411Z,92219.11
2018-12-02T03:13:13.357Z,92182.17
2018-12-02T03:15:42.672Z,92175.88
2018-12-02T03:18:13.238Z,92173.78
2018-12-02T03:20:42.629Z,92160.70
2018-12-02T03:23:11.925Z,92201.83
2018-12-02T03:25:41.150Z,92221.22
2018-12-02T03:28:11.282Z,92273.92
2018-12-02T03:30:41.066Z,92301.72
2018-12-02T03:33:10.557Z,92333.17
2018-12-02T03:35:40.599Z,92333.97
2018-12-02T03:38:09.833Z,92387.77
2018-12-02T03:40:39.090Z,92390.65
2018-12-02T03:43:08.341Z,92364.13
2018-12-02T03:45:37.555Z,92380.94
2018-12-02T03:48:06.836Z,92393.53
2018-12-02T03:50:36.080Z,92420.55
2018-12-02T03:53:05.798Z,92427.13
2018-12-02T03:55:35.606Z,92436.58
2018-12-02T03:58:04.956Z,92401.14
2018-12-02T04:00:40.893Z,92427.39
2018-12-02T04:03:10.182Z,92404.81
2018-12-02T04:05:39.505Z,92429.48
2018-12-02T04:08:08.739Z,92389.08
2018-12-02T04:10:37.944Z,92394.59
2018-12-02T04:13:07.180Z,92429.23
2018-12-02T04:15:36.684Z,92423.45
2018-12-02T04:18:06.749Z,92446.55
2018-12-02T04:20:37.464Z,92446.03
2018-12-02T04:23:08.088Z,92452.06
2018-12-02T04:25:37.319Z,92436.84
2018-12-02T04:28:07.383Z,92433.43
2018-12-02T04:30:36.678Z,92406.92
2018-12-02T04:33:06.190Z,92385.68
2018-12-02T04:35:36.411Z,92398.27
2018-12-02T04:38:05.793Z,92399.84
2018-12-02T04:40:35.272Z,92425.56
2018-12-02T04:43:04.529Z,92423.46
2018-12-02T04:45:33.753Z,92392.24
2018-12-02T04:48:03.025Z,92396.17
2018-12-02T04:50:32.263Z,92373.84
2018-12-02T04:53:01.515Z,92366.77
2018-12-02T04:55:31.038Z,92309.86
2018-12-02T04:58:00.309Z,92315.90
2018-12-02T05:00:29.506Z,92332.16
2018-12-02T05:02:58.782Z,92288.63
2018-12-02T05:05:28.119Z,92301.48
2018-12-02T05:07:57.428Z,92336.88
2018-12-02T05:10:26.635Z,92334.25
2018-12-02T05:12:55.944Z,92375.16
2018-12-02T05:15:25.209Z,92379.63
2018-12-02T05:17:54.452Z,92336.61
2018-12-02T05:20:23.734Z,92292.29
2018-12-02T05:22:53.321Z,92298.34
2018-12-02T05:25:22.759Z,92347.37
2018-12-02T05:27:52.164Z,92346.58
2018-12-02T05:30:22.364Z,92353.66
2018-12-02T05:32:53.485Z,92325.34
2018-12-02T05:35:23.915Z,92317.73
2018-12-02T05:37:53.220Z,92283.62
2018-12-02T05:40:23.586Z,92297.56
2018-12-02T05:42:53.683Z,92288.64
2018-12-02T05:45:23.188Z,92309.62
2018-12-02T05:47:52.443Z,92300.19
2018-12-02T05:50:22.721Z,92266.86
2018-12-02T05:52:55.013Z,92239.86
2018-12-02T05:55:27.511Z,92217.59
2018-12-02T05:57:57.467Z,92214.44
2018-12-02T06:00:26.672Z,92254.80
2018-12-02T06:02:56.933Z,92265.81
2018-12-02T06:05:26.214Z,92289.66
2018-12-02T06:07:55.496Z,92301.49
2018-12-02T06:10:24.709Z,92243.01
2018-12-02T06:12:53.982Z,92227.29
2018-12-02T06:15:23.279Z,92189.81
2018-12-02T06:17:52.608Z,92223.09
2018-12-02T06:20:24.256Z,92186.64
2018-12-02T06:22:56.034Z,92180.88
2018-12-02T06:25:25.315Z,92175.65
2018-12-02T06:27:54.827Z,92215.77
2018-12-02T06:30:25.053Z,92227.81
2018-12-02T06:32:58.556Z,92194.52
2018-12-02T06:35:28.150Z,92143.70
2018-12-02T06:37:59.657Z,92139.50
2018-12-02T06:40:29.425Z,92146.58
2018-12-02T06:42:59.539Z,92198.99
2018-12-02T06:45:28.847Z,92226.25
2018-12-02T06:47:58.125Z,92208.43
2018-12-02T06:50:29.299Z,92184.81
2018-12-02T06:52:58.590Z,92160.98
2018-12-02T06:55:54.886Z,92165.17
2018-12-02T06:58:37.221Z,92157.05
2018-12-02T07:01:28.281Z,92188.50
2018-12-02T07:04:05.311Z,92171.73
2018-12-02T07:06:35.150Z,92201.62
2018-12-02T07:09:05.447Z,92201.59
2018-12-02T07:11:34.925Z,92166.22
2018-12-02T07:14:05.322Z,92167.53
2018-12-02T07:16:34.704Z,92147.89
2018-12-02T07:19:08.728Z,92142.39
2018-12-02T07:21:39.905Z,92163.09
2018-12-02T07:24:11.685Z,92204.50
2018-12-02T07:26:42.940Z,92194.52
2018-12-02T07:29:12.310Z,92172.78
2018-12-02T07:31:41.526Z,92191.12
2018-12-02T07:34:12.309Z,92213.16
2018-12-02T07:36:41.561Z,92231.49
2018-12-02T07:39:20.612Z,92193.73
2018-12-02T07:41:50.564Z,92171.47
2018-12-02T07:44:19.757Z,92213.68
2018-12-02T07:46:49.005Z,92200.81
2018-12-02T07:49:18.288Z,92171.47
2018-12-02T07:51:47.498Z,92151.30
2018-12-02T07:54:16.710Z,92163.61
2018-12-02T07:56:46.028Z,92248.80
2018-12-02T07:59:15.330Z,92285.75
2018-12-02T08:01:44.659Z,92268.71
2018-12-02T08:04:13.974Z,92310.95
2018-12-02T08:06:44.025Z,92321.97
2018-12-02T08:09:13.267Z,92302.53
2018-12-02T08:11:42.551Z,92334.81
2018-12-02T08:14:11.806Z,92332.98
2018-12-02T08:16:41.027Z,92344.25
2018-12-02T08:19:10.291Z,92344.52
2018-12-02T08:21:39.536Z,92369.69
2018-12-02T08:24:08.804Z,92370.22
2018-12-02T08:26:38.025Z,92388.84
2018-12-02T08:29:08.198Z,92379.92
2018-12-02T08:31:38.256Z,92392.25
2018-12-02T08:34:07.558Z,92407.73
2018-12-02T08:36:36.791Z,92415.34
2018-12-02T08:39:09.347Z,92427.44
2018-12-02T08:41:38.613Z,92426.13
2018-12-02T08:44:08.543Z,92395.13
2018-12-02T08:46:38.374Z,92355.02
2018-12-02T08:49:07.608Z,92384.66
2018-12-02T08:51:36.865Z,92389.11
2018-12-02T08:54:06.196Z,92397.50
2018-12-02T08:56:35.410Z,92411.41
2018-12-02T08:59:05.292Z,92357.89
2018-12-02T09:01:34.514Z,92349.77
2018-12-02T09:04:04.305Z,92362.35
2018-12-02T09:06:33.620Z,92352.92
2018-12-02T09:09:04.629Z,92369.17
2018-12-02T09:11:33.873Z,92352.92
2018-12-02T09:14:03.690Z,92363.92
2018-12-02T09:16:32.927Z,92378.63
2018-12-02T09:19:02.289Z,92374.42
2018-12-02T09:21:31.538Z,92373.38
2018-12-02T09:24:01.757Z,92374.16
2018-12-02T09:26:31.045Z,92418.23
2018-12-02T09:29:00.276Z,92447.91
2018-12-02T09:31:29.603Z,92432.14
2018-12-02T09:33:59.387Z,92403.80
2018-12-02T09:36:28.745Z,92440.56
2018-12-02T09:38:58.081Z,92490.42
2018-12-02T09:41:27.325Z,92499.61
2018-12-02T09:43:56.612Z,92505.12
2018-12-02T09:46:27.156Z,92518.78
2018-12-02T09:48:56.531Z,92522.72
2018-12-02T09:51:25.858Z,92532.95
2018-12-02T09:53:55.147Z,92567.91
2018-12-02T09:56:24.474Z,92583.39
2018-12-02T09:58:53.667Z,92619.38
2018-12-02T10:01:23.063Z,92659.58
2018-12-02T10:03:52.829Z,92663.78
2018-12-02T10:06:22.104Z,92671.43
2018-12-02T10:08:51.389Z,92671.43
2018-12-02T10:11:20.661Z,92689.83
2018-12-02T10:13:50.447Z,92690.09
2018-12-02T10:16:19.645Z,92640.92
2018-12-02T10:18:49.017Z,92676.69
2018-12-02T10:21:18.448Z,92643.02
2018-12-02T10:23:47.749Z,92654.58
2018-12-02T10:26:16.984Z,92657.20
2018-12-02T10:28:47.656Z,92628.05
2018-12-02T10:31:16.885Z,92598.38
2018-12-02T10:33:46.103Z,92627.27
2018-12-02T10:36:15.382Z,92674.05
2018-12-02T10:38:45.331Z,92690.35
2018-12-02T10:41:15.484Z,92731.61
2018-12-02T10:43:44.775Z,92748.44
2018-12-02T10:46:14.085Z,92756.32
2018-12-02T10:48:43.333Z,92763.42
2018-12-02T10:51:12.726Z,92759.48
2018-12-02T10:53:41.996Z,92725.30
2018-12-02T10:56:11.253Z,92716.63
2018-12-02T10:58:41.075Z,92705.86
2018-12-02T11:01:17.274Z,92685.36
2018-12-02T11:03:47.177Z,92663.26
2018-12-02T11:06:16.500Z,92703.76
2018-12-02T11:08:47.170Z,92705.86
2018-12-02T11:11:16.550Z,92713.74
2018-12-02T11:13:45.811Z,92762.37
2018-12-02T11:16:15.036Z,92783.14
2018-12-02T11:18:44.960Z,92758.43
2018-12-02T11:21:15.043Z,92707.96
2018-12-02T11:23:44.352Z,92698.23
2018-12-02T11:26:13.597Z,92688.52
2018-12-02T11:28:43.306Z,92690.35
2018-12-02T11:31:12.618Z,92658.80
2018-12-02T11:33:41.978Z,92671.94
2018-12-02T11:36:11.315Z,92629.11
2018-12-02T11:38:41.718Z,92672.72
2018-12-02T11:41:11.414Z,92657.22
2018-12-02T11:43:40.985Z,92694.56
2018-12-02T11:46:10.725Z,92695.88
2018-12-02T11:49:43.435Z,92682.97
2018-12-02T11:52:13.640Z,92696.40
2018-12-02T11:54:43.068Z,92700.34
2018-12-02T11:57:12.982Z,92648.28
2018-12-02T11:59:42.277Z,92648.81
2018-12-02T12:02:12.531Z,92620.70
2018-12-02T12:04:41.782Z,92687.20
2018-12-02T12:07:11.799Z,92722.16
2018-12-02T12:09:41.297Z,92712.43
2018-12-02T12:12:10.660Z,92681.13
2018-12-02T12:14:39.869Z,92639.09
2018-12-02T12:17:09.132Z,92684.81
2018-12-02T12:19:39.118Z,92681.12
2018-12-02T12:22:08.638Z,92680.88
2018-12-02T12:24:37.926Z,92636.99
2018-12-02T12:27:08.913Z,92591.29
2018-12-02T12:29:38.528Z,92591.55
2018-12-02T12:32:07.773Z,92604.16
2018-12-02T12:34:37.357Z,92591.81
2018-12-02T12:37:07.660Z,92610.47
2018-12-02T12:39:36.919Z,92609.41
2018-12-02T12:42:06.887Z,92622.02
2018-12-02T12:44:36.100Z,92649.60
2018-12-02T12:47:06.035Z,92628.59
2018-12-02T12:49:35.987Z,92581.55
2018-12-02T12:52:05.495Z,92630.69
2018-12-02T12:54:34.710Z,92654.07
2018-12-02T12:57:03.929Z,92581.55
2018-12-02T12:59:33.989Z,92591.53
2018-12-02T13:02:04.045Z,92563.95
2018-12-02T13:04:33.653Z,92590.77
2018-12-02T13:07:02.858Z,92578.39
2018-12-02T13:09:32.966Z,92581.02
2018-12-02T13:12:02.208Z,92575.51
2018-12-02T13:14:31.842Z,92547.41
2018-12-02T13:17:01.248Z,92545.05
2018-12-02T13:19:31.140Z,92524.31
2018-12-02T13:22:00.593Z,92513.81
2018-12-02T13:24:29.818Z,92563.69
2018-12-02T13:26:59.764Z,92541.91
2018-12-02T13:29:29.033Z,92554.24
2018-12-02T13:31:58.285Z,92562.12
2018-12-02T13:34:28.063Z,92565.80
2018-12-02T13:36:57.295Z,92598.13
2018-12-02T13:39:26.541Z,92575.51
2018-12-02T13:41:56.141Z,92579.45
2018-12-02T13:44:25.433Z,92627.02
2018-12-02T13:46:55.577Z,92612.05
2018-12-02T13:49:24.999Z,92612.56
2018-12-02T13:51:54.206Z,92638.05
2018-12-02T13:54:35.693Z,92660.11
2018-12-02T13:57:05.236Z,92640.15
2018-12-02T13:59:34.456Z,92607.05
2018-12-02T14:02:03.660Z,92608.37
2018-12-02T14:04:32.961Z,92616.25
2018-12-02T14:07:02.185Z,92647.77
2018-12-02T14:09:33.026Z,92676.67
2018-12-02T14:12:01.625Z,92651.45
2018-12-02T14:14:34.684Z,92671.15
2018-12-02T14:17:09.390Z,92687.44
2018-12-02T14:19:39.779Z,92700.58
2018-12-02T14:22:09.026Z,92694.53
2018-12-02T14:24:38.235Z,92713.48
2018-12-02T14:27:08.481Z,92698.73
2018-12-02T14:29:43.808Z,92702.95
2018-12-02T14:32:14.742Z,92732.94
2018-12-02T14:34:43.987Z,92710.59
2018-12-02T14:37:13.254Z,92763.69
2018-12-02T14:39:42.559Z,92791.56
2018-12-02T14:42:12.466Z,92776.84
2018-12-02T14:44:42.060Z,92788.93
2018-12-02T14:47:12.224Z,92789.20
2018-12-02T14:49:41.491Z,92835.24
2018-12-02T14:52:10.721Z,92858.13
2018-12-02T14:54:39.992Z,92851.28
2018-12-02T14:57:09.298Z,92846.81
2018-12-02T14:59:38.545Z,92856.55
2018-12-02T15:02:07.802Z,92877.59
2018-12-02T15:04:37.040Z,92857.86
2018-12-02T15:07:06.615Z,92872.59
2018-12-02T15:09:35.854Z,92888.11
2018-12-02T15:12:05.612Z,92903.64
2018-12-02T15:14:35.696Z,92894.69
2018-12-02T15:17:05.037Z,92901.80
2018-12-02T15:19:34.335Z,92903.64
2018-12-02T15:22:04.788Z,92926.53
2018-12-02T15:24:34.050Z,92906.00
2018-12-02T15:27:03.266Z,92928.11
2018-12-02T15:29:34.103Z,92936.03
2018-12-02T15:32:03.504Z,92936.56
2018-12-02T15:34:32.934Z,92934.19
2018-12-02T15:37:02.276Z,92947.61
2018-12-02T15:39:32.521Z,92951.82
2018-12-02T15:42:01.809Z,92935.50
2018-12-02T15:44:31.107Z,92931.00
2018-12-02T15:47:00.890Z,92944.19
2018-12-02T15:49:30.121Z,92943.92
2018-12-02T15:51:59.424Z,92947.61
2018-12-02T15:54:29.593Z,92936.82
2018-12-02T15:56:58.902Z,92947.34
2018-12-02T15:59:28.967Z,92923.89
2018-12-02T16:01:59.998Z,92927.05
2018-12-02T16:04:29.240Z,92952.34
2018-12-02T16:06:59.130Z,92916.79
2018-12-02T16:09:28.479Z,92920.73
2018-12-02T16:11:57.809Z,92934.69
2018-12-02T16:14:28.067Z,92927.58
2018-12-02T16:16:57.358Z,92942.08
2018-12-02T16:19:26.669Z,92925.73
2018-12-02T16:21:55.895Z,92925.21
2018-12-02T16:24:25.788Z,92917.84
2018-12-02T16:26:55.266Z,92898.64
2018-12-02T16:29:24.534Z,92911.00
2018-12-02T16:31:54.272Z,92911.00
2018-12-02T16:34:23.602Z,92930.73
2018-12-02T16:36:52.811Z,92941.00
2018-12-02T16:39:22.161Z,92917.31
2018-12-02T16:41:52.461Z,92900.73
2018-12-02T16:44:23.113Z,92895.48
2018-12-02T16:46:52.315Z,92884.16
2018-12-02T16:49:22.663Z,92873.64
2018-12-02T16:51:52.310Z,92892.06
2018-12-02T16:54:22.454Z,92862.59
2018-12-02T16:56:52.765Z,92903.11
2018-12-02T16:59:27.596Z,92898.37
2018-12-02T17:02:04.943Z,92909.95
2018-12-02T17:04:29.288Z,92881.27
2018-12-02T17:06:59.234Z,92914.16
2018-12-02T17:09:29.214Z,92913.89
2018-12-02T17:11:58.447Z,92903.90
2018-12-02T17:14:27.722Z,92905.47
2018-12-02T17:16:57.150Z,92858.91
2018-12-02T17:19:27.649Z,92901.53
2018-12-02T17:22:02.297Z,92915.21
2018-12-02T17:24:31.796Z,92898.90
2018-12-02T17:27:03.888Z,92907.31
2018-12-02T17:29:41.469Z,92864.44
2018-12-02T17:32:13.724Z,92879.17
2018-12-02T17:34:43.011Z,92918.89
2018-12-02T17:37:13.035Z,92867.59
2018-12-02T17:39:45.766Z,92899.16
2018-12-02T17:42:15.361Z,92917.31
2018-12-02T17:44:45.898Z,92921.26
2018-12-02T17:47:16.407Z,92925.47
2018-12-02T17:49:45.767Z,92911.27
2018-12-02T17:52:15.023Z,92898.37
2018-12-02T17:54:46.723Z,92903.37
2018-12-02T17:57:16.895Z,92883.64
2018-12-02T17:59:47.118Z,92880.48
2018-12-02T18:02:17.301Z,92863.12
2018-12-02T18:04:50.809Z,92872.85
2018-12-02T18:07:21.701Z,92869.70
2018-12-02T18:09:51.142Z,92854.44
2018-12-02T18:12:20.481Z,92867.06
2018-12-02T18:14:49.746Z,92826.80
2018-12-02T18:17:19.011Z,92875.48
2018-12-02T18:19:53.171Z,92847.31
2018-12-02T18:22:22.431Z,92838.37
2018-12-02T18:24:51.922Z,92837.31
2018-12-02T18:27:22.064Z,92866.28
2018-12-02T18:29:51.433Z,92871.54
2018-12-02T18:32:23.263Z,92873.91
2018-12-02T18:34:55.298Z,92876.53
2018-12-02T18:37:24.612Z,92904.16
2018-12-02T18:39:54.996Z,92901.00
2018-12-02T18:42:25.807Z,92832.05
2018-12-02T18:44:55.051Z,92870.48
2018-12-02T18:47:24.359Z,92895.47
2018-12-02T18:49:54.348Z,92859.41
2018-12-02T18:52:23.653Z,92837.84
2018-12-02T18:54:52.908Z,92880.74
2018-12-02T18:57:22.142Z,92871.53
2018-12-02T18:59:51.371Z,92879.16
2018-12-02T19:02:20.618Z,92928.63
2018-12-02T19:04:49.919Z,92924.94
2018-12-02T19:07:19.204Z,92904.95
2018-12-02T19:09:50.311Z,92880.74
2018-12-02T19:12:20.190Z,92897.58
2018-12-02T19:14:49.425Z,92897.31
2018-12-02T19:17:18.671Z,92944.41
2018-12-02T19:19:48.006Z,92934.16
2018-12-02T19:22:17.238Z,92961.78
2018-12-02T19:24:46.587Z,92971.26
2018-12-02T19:27:15.865Z,92973.66
2018-12-02T19:29:45.111Z,92994.72
2018-12-02T19:32:14.716Z,92987.08
2018-12-02T19:34:44.512Z,92977.61
2018-12-02T19:37:14.009Z,92993.13
2018-12-02T19:39:43.610Z,93007.88
2018-12-02T19:42:12.862Z,93001.30
2018-12-02T19:44:42.114Z,93043.16
2018-12-02T19:47:11.427Z,93035.52
2018-12-02T19:49:40.654Z,93048.42
2018-12-02T19:52:09.968Z,93085.55
2018-12-02T19:54:39.201Z,93095.59
2018-12-02T19:57:08.446Z,93097.44
2018-12-02T19:59:39.299Z,93104.28
2018-12-02T20:02:09.453Z,93101.65
2018-12-02T20:04:40.008Z,93088.98
2018-12-02T20:07:11.279Z,93084.50
2018-12-02T20:09:41.633Z,93080.81
2018-12-02T20:12:10.907Z,93090.03
2018-12-02T20:14:40.120Z,93067.38
2018-12-02T20:17:09.392Z,93041.58
2018-12-02T20:19:43.857Z,93077.66
2018-12-02T20:22:13.108Z,93057.11
2018-12-02T20:24:42.404Z,93060.53
2018-12-02T20:27:12.827Z,93076.07
2018-12-02T20:29:42.041Z,93072.13
2018-12-02T20:32:12.857Z,93061.59
2018-12-02T20:34:42.211Z,93058.42
2018-12-02T20:37:11.765Z,93036.84
2018-12-02T20:39:41.760Z,93046.31
2018-12-02T20:42:12.530Z,93063.42
2018-12-02T20:44:42.373Z,93035.25
2018-12-02T20:47:11.613Z,93014.19
2018-12-02T20:49:41.539Z,93012.61
2018-12-02T20:52:10.767Z,93016.03
2018-12-02T20:54:40.122Z,93027.09
2018-12-02T20:57:09.323Z,93023.67
2018-12-02T20:59:38.581Z,93024.98
2018-12-02T21:02:08.900Z,93026.30
2018-12-02T21:04:38.559Z,93022.35
2018-12-02T21:07:07.845Z,93011.03
2018-12-02T21:09:37.997Z,92983.63
2018-12-02T21:12:07.333Z,92996.02
2018-12-02T21:14:37.191Z,93017.61
2018-12-02T21:17:17.692Z,93009.98
2018-12-02T21:19:48.692Z,93016.30
2018-12-02T21:22:18.758Z,93004.71
2018-12-02T21:24:48.202Z,93012.08
2018-12-02T21:27:17.742Z,93024.98
2018-12-02T21:29:48.548Z,93018.92
2018-12-02T21:32:22.592Z,93008.92
2018-12-02T21:34:54.761Z,93022.08
2018-12-02T21:37:26.491Z,93036.04
2018-12-02T21:39:55.804Z,93022.88
2018-12-02T21:42:25.089Z,93033.67
2018-12-02T21:44:54.329Z,93039.98
2018-12-02T21:47:23.739Z,93046.83
2018-12-02T21:49:53.274Z,93027.35
2018-12-02T21:52:22.465Z,93034.72
2018-12-02T21:54:51.727Z,93047.63
2018-12-02T21:57:22.467Z,93026.30
2018-12-02T21:59:56.562Z,93027.35
2018-12-02T22:02:26.149Z,93041.04
2018-12-02T22:04:55.980Z,93015.50
2018-12-02T22:07:25.190Z,93023.66
2018-12-02T22:09:54.425Z,93032.88
2018-12-02T22:12:23.641Z,93022.88
2018-12-02T22:14:53.077Z,93012.88
2018-12-02T22:17:22.386Z,92999.67
2018-12-02T22:19:52.229Z,92979.93
2018-12-02T22:22:21.510Z,93015.50
2018-12-02T22:24:50.752Z,93009.97
2018-12-02T22:27:20.894Z,92988.36
2018-12-02T22:29:51.645Z,92986.52
2018-12-02T22:32:20.893Z,92958.35
2018-12-02T22:34:50.198Z,92949.41
2018-12-02T22:37:22.367Z,92940.45
2018-12-02T22:39:51.638Z,92934.15
2018-12-02T22:42:21.154Z,92919.67
2018-12-02T22:44:50.948Z,92929.14
2018-12-02T22:47:20.177Z,92930.45
2018-12-02T22:49:50.480Z,92926.25
2018-12-02T22:52:19.799Z,92905.46
2018-12-02T22:54:49.006Z,92894.91
2018-12-02T22:57:18.234Z,92899.41
2018-12-02T22:59:51.456Z,92892.02
2018-12-02T23:02:27.186Z,92889.13
2018-12-02T23:04:56.443Z,92887.55
2018-12-02T23:07:25.801Z,92896.22
2018-12-02T23:09:55.025Z,92871.50
2018-12-02T23:12:24.352Z,92879.39
2018-12-02T23:14:53.583Z,92861.77
2018-12-02T23:17:23.584Z,92870.45
2018-12-02T23:19:52.880Z,92860.98
2018-12-02T23:22:22.116Z,92848.09
2018-12-02T23:24:51.389Z,92853.35
2018-12-02T23:27:20.599Z,92841.52
2018-12-02T23:29:49.800Z,92862.30
2018-12-02T23:32:19.662Z,92863.34
2018-12-02T23:34:48.881Z,92874.39
2018-12-02T23:37:20.554Z,92880.17
2018-12-02T23:39:47.340Z,92850.98
2018-12-02T23:42:16.615Z,92842.83
2018-12-02T23:44:45.812Z,92844.94
2018-12-02T23:47:15.085Z,92852.03
2018-12-02T23:49:44.353Z,92854.92
2018-12-02T23:52:13.654Z,92845.20
2018-12-02T23:54:42.874Z,92838.89
2018-12-02T23:57:12.162Z,92852.03
2018-12-02T23:59:41.495Z,92844.14
